首页
METAR-TAF:

METAR-TAF

机场 :

凱恩斯, 澳大利亚

凱恩斯國際機場

纬度: 16-53S, 经度: 145-45E, 海拔: 3米

当前天气观测

该预报发布于17分钟前的13:00 UTC
风速9节,风向南转南东
温度 26°C
湿度 74%
气压 1011 hPa
能见度10公里或以上
少量云层高于2500英尺
散云层高于4000英尺
多云层高于15000英尺

METAR: YBCS 171300Z 15009KT 9999 FEW025 SCT040 BKN150 26/21 Q1011 INTER 1400/1600 3000 SHRA BKN018

时间: 23:17 (13:17 UTC)

预报

该预报发布于2小时和15分钟前的11:02 UTC
预报有效从17日的 12点(UTC)到 18日的 12点(UTC)
风速8节,风向
能见度10公里或以上
散云层高于2200英尺
多云层高于3500英尺
小阵雨
从 18日的 0000点(UTC)
风速14节,风向东转东南
能见度10公里或以上
散云层高于2500英尺
多云层高于4000英尺
小阵雨
从 18日的 0800点(UTC)
风速8节,风向
能見度: 3000
散云层高于2200英尺
多云层高于3500英尺
多云层高于1800英尺
小阵雨, 阵雨

TAF: YBCS 171102Z 1712/1812 17008KT 9999 -SHRA SCT022 BKN035 FM180000 12014KT 9999 -SHRA SCT025 BKN040 FM180800 17008KT 9999 -SHRA SCT022 BKN035 INTER 1712/1722 3000 SHRA BKN018

超过4000个机场的气象观测和天气预报(METAR&TAF报告)。

可查询的气象台以黄色和红色小点在地图上表示。

将鼠标移到小点上方,可查看气象台名称。

然后点击查看天气观测和预报。

如需切换地图:点击带黑十字的绿色按钮放大地图;点击带横线的绿色按钮缩小地图;或者点击绿色箭头查看邻近地区的地图。


METAR-TAF: